Time;durP1;ratioP1;P1;durP2;ratioP2;P2;SDS_P1;SDS_P2;PMS_P1;PMS_P2;Temp;Humidity;BMP_temperature;BMP_pressure;BME280_temperature;BME280_humidity;BME280_pressure;Samples;Min_cycle;Max_cycle;Signal;HPM_P1;HPM_P2
2021/08/27 04:51:18;;;;;;;1.85;1.70;;;;;;;;;;5065803;23;20768;-80
2021/08/27 04:53:43;;;;;;;2.13;1.80;;;;;;;;;;4918740;29;20029;-84
2021/08/27 04:56:08;;;;;;;2.42;2.00;;;;;;;;;;4918554;29;20028;-77
2021/08/27 04:58:34;;;;;;;2.42;1.90;;;;;;;;;;4920033;29;20471;-80
2021/08/27 05:00:59;;;;;;;3.72;2.15;;;;;;;;;;4920177;29;20072;-90
2021/08/27 17:46:04;;;;;;;3.77;1.90;;;;;;;;;;4944697;29;20056;-83
2021/08/27 17:48:30;;;;;;;2.63;1.80;;;;;;;;;;4935735;29;20055;-81
2021/08/27 17:50:55;;;;;;;2.15;1.67;;;;;;;;;;4936680;29;20043;-83
2021/08/27 17:53:21;;;;;;;2.60;1.80;;;;;;;;;;4920542;29;20036;-82
2021/08/27 17:55:46;;;;;;;2.95;2.03;;;;;;;;;;4917554;29;20025;-83
2021/08/27 17:58:11;;;;;;;5.28;2.60;;;;;;;;;;4917155;29;20035;-86
2021/08/27 18:00:37;;;;;;;3.00;2.13;;;;;;;;;;4917151;29;20119;-86
2021/08/27 18:03:02;;;;;;;3.08;1.92;;;;;;;;;;4915837;29;20051;-81
2021/08/27 18:05:28;;;;;;;4.15;2.28;;;;;;;;;;4917135;29;20031;-78
2021/08/27 18:07:53;;;;;;;2.67;1.90;;;;;;;;;;4917422;29;20031;-95
2021/08/27 18:10:21;;;;;;;4.90;2.17;;;;;;;;;;4917536;29;20032;-87
2021/08/27 18:12:46;;;;;;;4.68;3.33;;;;;;;;;;4917856;29;20111;-85
2021/08/27 18:15:12;;;;;;;4.20;2.33;;;;;;;;;;4917739;29;20048;-89
2021/08/27 18:17:38;;;;;;;2.67;2.25;;;;;;;;;;4917633;29;20511;-88
2021/08/27 18:20:04;;;;;;;4.45;2.17;;;;;;;;;;4917887;29;20056;-92
2021/08/27 18:22:30;;;;;;;2.90;2.00;;;;;;;;;;4917321;29;20028;-92
2021/08/27 18:24:55;;;;;;;2.92;2.10;;;;;;;;;;4916674;29;20111;-96
2021/08/27 18:27:20;;;;;;;2.58;1.70;;;;;;;;;;4916098;29;20040;-90
2021/08/27 18:29:46;;;;;;;2.30;1.92;;;;;;;;;;4916681;29;20040;-80
2021/08/27 18:32:11;;;;;;;7.10;2.20;;;;;;;;;;4913998;29;20088;-82
2021/08/27 18:34:37;;;;;;;2.88;1.95;;;;;;;;;;4916383;29;20490;-82
2021/08/27 18:37:02;;;;;;;3.80;2.10;;;;;;;;;;4916745;29;20120;-81
2021/08/27 18:39:28;;;;;;;3.75;2.30;;;;;;;;;;4916944;29;20055;-81
2021/08/27 18:41:53;;;;;;;2.45;1.90;;;;;;;;;;4916504;29;20032;-81
2021/08/27 18:44:18;;;;;;;3.13;2.20;;;;;;;;;;4917023;29;20059;-81
2021/08/27 18:46:44;;;;;;;3.17;2.22;;;;;;;;;;4916013;29;20048;-81
2021/08/27 18:49:09;;;;;;;3.08;2.00;;;;;;;;;;4910972;29;20044;-81
2021/08/27 18:51:35;;;;;;;2.83;2.33;;;;;;;;;;4916853;29;20032;-81
2021/08/27 18:54:01;;;;;;;3.05;2.08;;;;;;;;;;4916715;29;20384;-81
2021/08/27 18:56:29;;;;;;;2.42;2.20;;;;;;;;;;4916710;29;21967;-81
2021/08/27 18:58:57;;;;;;;3.17;2.00;;;;;;;;;;4916589;29;20024;-82
2021/08/27 19:01:24;;;;;;;4.20;2.47;;;;;;;;;;4916573;29;20024;-79
2021/08/27 19:03:49;;;;;;;3.05;2.22;;;;;;;;;;4916883;29;20028;-78
2021/08/27 19:06:15;;;;;;;3.10;2.20;;;;;;;;;;4916957;29;20024;-78
2021/08/27 19:08:40;;;;;;;3.60;2.08;;;;;;;;;;4919017;29;20020;-78
2021/08/27 19:11:06;;;;;;;3.80;2.35;;;;;;;;;;4920690;29;20028;-78
2021/08/27 19:13:32;;;;;;;3.45;2.47;;;;;;;;;;4920399;29;20028;-79
2021/08/27 19:16:01;;;;;;;2.40;2.05;;;;;;;;;;4920181;29;20554;-79
2021/08/27 19:18:26;;;;;;;5.25;2.03;;;;;;;;;;4920390;29;20123;-79
2021/08/27 19:20:52;;;;;;;3.47;2.25;;;;;;;;;;4920658;29;20115;-78
2021/08/27 19:23:17;;;;;;;4.35;2.83;;;;;;;;;;4920373;29;20039;-82
2021/08/27 19:25:43;;;;;;;2.72;2.00;;;;;;;;;;4920449;29;20131;-80
2021/08/27 19:28:08;;;;;;;2.88;2.08;;;;;;;;;;4920342;29;20084;-79
2021/08/27 19:30:34;;;;;;;3.33;2.50;;;;;;;;;;4920513;29;20024;-80
2021/08/27 19:32:59;;;;;;;6.05;2.90;;;;;;;;;;4920131;29;20375;-79
2021/08/27 19:35:24;;;;;;;3.92;2.90;;;;;;;;;;4920467;29;20046;-79
2021/08/27 19:37:50;;;;;;;2.72;1.98;;;;;;;;;;4920109;29;20032;-80
2021/08/27 19:40:18;;;;;;;4.03;2.00;;;;;;;;;;4920354;29;20494;-80
2021/08/27 19:42:44;;;;;;;3.55;2.33;;;;;;;;;;4919966;29;20040;-80
2021/08/27 19:45:10;;;;;;;2.67;2.03;;;;;;;;;;4919895;29;20035;-80
2021/08/27 19:47:35;;;;;;;2.95;1.90;;;;;;;;;;4920032;29;20063;-80
2021/08/27 19:50:00;;;;;;;2.90;2.05;;;;;;;;;;4919962;29;20032;-79
2021/08/27 19:52:26;;;;;;;2.63;2.00;;;;;;;;;;4919422;29;20024;-80
2021/08/27 19:54:51;;;;;;;3.22;2.38;;;;;;;;;;4919766;29;20028;-80
2021/08/27 19:57:17;;;;;;;4.18;2.10;;;;;;;;;;4919868;29;20092;-80
2021/08/27 19:59:42;;;;;;;3.92;2.10;;;;;;;;;;4919553;29;20115;-80
2021/08/27 20:02:08;;;;;;;2.42;2.17;;;;;;;;;;4919470;29;20107;-80
2021/08/27 20:04:33;;;;;;;3.17;2.20;;;;;;;;;;4921689;29;20534;-79
2021/08/27 20:06:58;;;;;;;2.80;2.10;;;;;;;;;;4919833;29;20522;-80
2021/08/27 20:09:24;;;;;;;5.05;2.35;;;;;;;;;;4919538;29;20103;-80
2021/08/27 20:11:49;;;;;;;4.57;2.05;;;;;;;;;;4919457;29;20090;-80
2021/08/27 20:14:15;;;;;;;3.92;2.33;;;;;;;;;;4919673;29;20036;-80
2021/08/27 20:16:40;;;;;;;2.88;2.25;;;;;;;;;;4919475;29;20423;-80
2021/08/27 20:19:06;;;;;;;3.47;2.10;;;;;;;;;;4918563;29;20036;-80
2021/08/27 20:21:31;;;;;;;3.20;1.92;;;;;;;;;;4919208;29;20471;-80
2021/08/27 20:23:58;;;;;;;4.22;2.13;;;;;;;;;;4919544;29;20029;-80
2021/08/27 20:26:24;;;;;;;2.55;2.25;;;;;;;;;;4919509;29;20082;-80
2021/08/27 20:28:49;;;;;;;4.22;2.30;;;;;;;;;;4919339;29;20107;-80
2021/08/27 20:31:15;;;;;;;3.05;2.30;;;;;;;;;;4919135;29;20028;-80
2021/08/27 20:33:42;;;;;;;5.75;2.22;;;;;;;;;;4919320;29;20024;-80
2021/08/27 20:36:08;;;;;;;3.75;2.08;;;;;;;;;;4919043;29;20128;-80
2021/08/27 20:38:33;;;;;;;3.15;2.08;;;;;;;;;;4917807;29;20040;-80
2021/08/27 20:40:59;;;;;;;4.07;2.00;;;;;;;;;;4919243;29;20047;-80
2021/08/27 20:43:25;;;;;;;2.78;2.30;;;;;;;;;;4919132;29;20044;-80
2021/08/27 20:45:50;;;;;;;3.60;2.28;;;;;;;;;;4918705;29;20080;-80
2021/08/27 20:48:15;;;;;;;3.70;2.08;;;;;;;;;;4918865;29;20403;-80
2021/08/27 20:50:41;;;;;;;2.13;1.92;;;;;;;;;;4918919;29;20103;-80
2021/08/27 20:53:08;;;;;;;3.17;2.00;;;;;;;;;;4918738;29;20407;-80
2021/08/27 20:55:34;;;;;;;2.90;1.85;;;;;;;;;;4918793;29;20084;-80
2021/08/27 20:57:59;;;;;;;3.28;2.25;;;;;;;;;;4918596;29;20059;-80
2021/08/27 21:00:25;;;;;;;3.83;2.30;;;;;;;;;;4918672;29;20067;-80
2021/08/27 21:02:50;;;;;;;3.42;2.13;;;;;;;;;;4918713;29;20064;-80
2021/08/27 21:05:16;;;;;;;2.45;2.25;;;;;;;;;;4918623;29;20032;-80
2021/08/27 21:07:41;;;;;;;4.60;2.25;;;;;;;;;;4918535;29;20035;-80
2021/08/27 21:10:07;;;;;;;2.83;2.25;;;;;;;;;;4918634;29;20056;-80
2021/08/27 21:12:32;;;;;;;3.15;2.10;;;;;;;;;;4918322;29;20036;-79
2021/08/27 21:14:58;;;;;;;4.50;2.50;;;;;;;;;;4918669;29;20027;-80
2021/08/27 21:17:23;;;;;;;3.55;2.33;;;;;;;;;;4918546;29;20115;-80
